Time,TemperatureF,DewpointF,PressureIn,WindDirection,WindDirectionDegrees,WindSpeedMPH,WindSpeedGustMPH,Humidity,HourlyPrecipIn,Conditions,Clouds,dailyrainin,SoftwareType,DateUTC
2013-05-07 00:01:00,47.5,45.3,29.93,WSW,242,0.0,1.3,92,0.00,,CLR,0.01,VWS V14.01,2013-05-07 04:01:00,
2013-05-07 00:02:00,47.5,45.3,29.92,WSW,242,0.0,1.3,92,0.00,,CLR,0.00,VWS V14.01,2013-05-07 04:02:00,
2013-05-07 00:07:00,47.3,45.1,29.92,WSW,242,0.0,1.3,92,0.00,,CLR,0.00,VWS V14.01,2013-05-07 04:07:00,
2013-05-07 00:08:00,47.3,45.1,29.92,WSW,242,0.0,1.3,92,0.00,,CLR,0.00,VWS V14.01,2013-05-07 04:08:00,
2013-05-07 00:13:00,47.4,45.2,29.92,WSW,242,0.0,0.0,92,0.00,,CLR,0.00,VWS V14.01,2013-05-07 04:13:00,
2013-05-07 00:18:00,47.3,45.1,29.92,WSW,242,0.0,0.0,92,0.00,,CLR,0.00,VWS V14.01,2013-05-07 04:18:00,
2013-05-07 00:19:00,47.3,45.1,29.92,WSW,242,0.0,0.0,92,0.00,,CLR,0.00,VWS V14.01,2013-05-07 04:19:00,
2013-05-07 00:24:00,47.3,45.1,29.92,WSW,242,0.0,0.0,92,0.00,,CLR,0.00,VWS V14.01,2013-05-07 04:24:00,
2013-05-07 00:29:00,47.3,45.1,29.92,WSW,242,0.0,0.0,92,0.00,,CLR,0.00,VWS V14.01,2013-05-07 04:29:00,
2013-05-07 00:34:00,47.3,45.1,29.92,WSW,242,0.0,0.0,92,0.00,,CLR,0.00,VWS V14.01,2013-05-07 04:34:00,
2013-05-07 00:39:00,47.3,45.1,29.92,WSW,242,0.0,3.9,92,0.00,,CLR,0.00,VWS V14.01,2013-05-07 04:39:00,
2013-05-07 00:44:00,47.3,45.1,29.92,WSW,242,0.0,1.3,92,0.00,,CLR,0.00,VWS V14.01,2013-05-07 04:44:00,
2013-05-07 00:49:00,47.6,45.4,29.92,WSW,242,0.0,2.6,92,0.00,,CLR,0.00,VWS V14.01,2013-05-07 04:49:00,
2013-05-07 00:54:00,48.0,45.8,29.93,WSW,242,2.6,2.6,92,0.00,,CLR,0.00,VWS V14.01,2013-05-07 04:54:00,
2013-05-07 00:59:00,48.7,46.5,29.93,WSW,242,1.3,3.9,92,0.00,,CLR,0.00,VWS V14.01,2013-05-07 04:59:00,
2013-05-07 01:04:00,49.2,46.4,29.93,WSW,242,0.0,2.6,90,0.00,,CLR,0.00,VWS V14.01,2013-05-07 05:04:00,
2013-05-07 01:09:00,49.3,46.5,29.93,WSW,242,0.0,0.0,90,0.00,,CLR,0.00,VWS V14.01,2013-05-07 05:09:00,
2013-05-07 01:14:00,49.1,46.3,29.93,SW,235,2.6,2.6,90,0.00,,CLR,0.00,VWS V14.01,2013-05-07 05:14:00,
2013-05-07 01:19:00,48.3,45.5,29.93,NE,53,1.3,5.2,90,0.00,,CLR,0.00,VWS V14.01,2013-05-07 05:19:00,
2013-05-07 01:24:00,48.0,45.5,29.93,West,266,2.6,3.9,91,0.00,,CLR,0.00,VWS V14.01,2013-05-07 05:24:00,
2013-05-07 01:29:00,47.9,45.4,29.93,West,266,0.0,1.3,91,0.00,,CLR,0.00,VWS V14.01,2013-05-07 05:29:00,
2013-05-07 01:34:00,47.8,45.3,29.93,West,266,0.0,2.6,91,0.00,,CLR,0.00,VWS V14.01,2013-05-07 05:34:00,
2013-05-07 01:39:00,47.7,45.2,29.92,West,266,1.3,3.9,91,0.00,,CLR,0.00,VWS V14.01,2013-05-07 05:39:00,
2013-05-07 01:44:00,47.6,45.4,29.92,West,266,2.6,3.9,92,0.00,,CLR,0.00,VWS V14.01,2013-05-07 05:44:00,
2013-05-07 01:49:00,47.7,45.5,29.92,West,266,2.6,3.9,92,0.00,,CLR,0.00,VWS V14.01,2013-05-07 05:49:00,
2013-05-07 01:54:00,47.7,45.5,29.91,West,266,0.0,1.3,92,0.00,,CLR,0.00,VWS V14.01,2013-05-07 05:54:00,
2013-05-07 01:59:00,47.8,45.6,29.91,West,266,0.0,0.0,92,0.00,,CLR,0.00,VWS V14.01,2013-05-07 05:59:00,
2013-05-07 02:04:00,47.6,45.1,29.91,West,266,0.0,0.0,91,0.00,,CLR,0.00,VWS V14.01,2013-05-07 06:04:00,
2013-05-07 02:09:00,47.4,44.9,29.90,West,266,0.0,0.0,91,0.00,,CLR,0.00,VWS V14.01,2013-05-07 06:09:00,
2013-05-07 02:14:00,47.3,45.1,29.90,West,266,0.0,1.3,92,0.00,,CLR,0.00,VWS V14.01,2013-05-07 06:14:00,
2013-05-07 02:19:00,47.1,44.9,29.90,West,266,0.0,0.0,92,0.00,,CLR,0.00,VWS V14.01,2013-05-07 06:19:00,
2013-05-07 02:25:00,46.9,44.4,29.90,West,266,0.0,2.6,91,0.00,,CLR,0.00,VWS V14.01,2013-05-07 06:25:00,
2013-05-07 02:30:00,46.5,44.3,29.90,West,266,1.3,2.6,92,0.00,,CLR,0.00,VWS V14.01,2013-05-07 06:30:00,
2013-05-07 02:35:00,46.4,44.2,29.90,West,266,1.3,1.3,92,0.00,,CLR,0.00,VWS V14.01,2013-05-07 06:35:00,
2013-05-07 02:40:00,46.3,44.1,29.90,West,266,0.0,0.0,92,0.00,,CLR,0.00,VWS V14.01,2013-05-07 06:40:00,
2013-05-07 02:45:00,46.2,44.0,29.90,West,266,0.0,0.0,92,0.00,,CLR,0.00,VWS V14.01,2013-05-07 06:45:00,
2013-05-07 02:50:00,46.1,43.9,29.90,West,266,0.0,0.0,92,0.00,,CLR,0.00,VWS V14.01,2013-05-07 06:50:00,
2013-05-07 02:55:00,45.9,43.7,29.90,West,266,0.0,0.0,92,0.00,,CLR,0.00,VWS V14.01,2013-05-07 06:55:00,
2013-05-07 03:00:00,45.8,43.6,29.90,West,266,0.0,0.0,92,0.00,,CLR,0.00,VWS V14.01,2013-05-07 07:00:00,
2013-05-07 03:05:00,45.8,43.6,29.90,West,266,0.0,0.0,92,0.00,,CLR,0.00,VWS V14.01,2013-05-07 07:05:00,
2013-05-07 03:10:00,45.6,43.4,29.90,West,266,2.6,2.6,92,0.00,,CLR,0.00,VWS V14.01,2013-05-07 07:10:00,
2013-05-07 03:15:00,45.5,43.3,29.90,West,266,0.0,2.6,92,0.00,,CLR,0.00,VWS V14.01,2013-05-07 07:15:00,
2013-05-07 03:20:00,45.3,43.1,29.90,West,266,0.0,0.0,92,0.00,,CLR,0.00,VWS V14.01,2013-05-07 07:20:00,
2013-05-07 03:25:00,45.2,43.0,29.90,West,266,0.0,0.0,92,0.00,,CLR,0.00,VWS V14.01,2013-05-07 07:25:00,
2013-05-07 03:30:00,45.1,43.2,29.90,West,266,0.0,0.0,93,0.00,,CLR,0.00,VWS V14.01,2013-05-07 07:30:00,
2013-05-07 03:35:00,45.0,43.1,29.90,West,266,0.0,0.0,93,0.00,,CLR,0.00,VWS V14.01,2013-05-07 07:35:00,
2013-05-07 03:40:00,44.9,42.7,29.90,West,266,0.0,0.0,92,0.00,,CLR,0.00,VWS V14.01,2013-05-07 07:40:00,
2013-05-07 03:45:00,44.7,42.5,29.90,West,266,0.0,0.0,92,0.00,,CLR,0.00,VWS V14.01,2013-05-07 07:45:00,
2013-05-07 03:50:00,44.6,42.4,29.90,West,266,0.0,0.0,92,0.00,,CLR,0.00,VWS V14.01,2013-05-07 07:50:00,
2013-05-07 03:55:00,44.5,42.6,29.90,West,266,0.0,1.3,93,0.00,,CLR,0.00,VWS V14.01,2013-05-07 07:55:00,
2013-05-07 04:00:00,44.4,42.5,29.90,West,266,0.0,1.3,93,0.00,,FEW060,0.00,VWS V14.01,2013-05-07 08:00:00,
2013-05-07 04:05:00,44.3,42.4,29.90,West,266,0.0,0.0,93,0.00,,FEW060,0.00,VWS V14.01,2013-05-07 08:05:00,
2013-05-07 04:10:00,44.2,42.3,29.90,West,266,1.3,1.3,93,0.00,,FEW060,0.00,VWS V14.01,2013-05-07 08:10:00,
2013-05-07 04:15:00,44.2,42.3,29.89,West,266,0.0,2.6,93,0.00,,FEW060,0.00,VWS V14.01,2013-05-07 08:15:00,
2013-05-07 04:20:00,44.2,42.3,29.89,West,266,0.0,1.3,93,0.00,,FEW060,0.00,VWS V14.01,2013-05-07 08:20:00,
2013-05-07 04:25:00,44.2,42.3,29.89,West,266,1.3,2.6,93,0.00,,FEW060,0.00,VWS V14.01,2013-05-07 08:25:00,
2013-05-07 04:30:00,44.1,42.2,29.89,West,266,1.3,2.6,93,0.00,,FEW060,0.00,VWS V14.01,2013-05-07 08:30:00,
2013-05-07 04:35:00,43.9,42.0,29.90,West,266,0.0,1.3,93,0.00,,FEW060,0.00,VWS V14.01,2013-05-07 08:35:00,
2013-05-07 04:40:00,43.8,41.9,29.89,West,266,0.0,0.0,93,0.00,,FEW060,0.00,VWS V14.01,2013-05-07 08:40:00,
2013-05-07 04:45:00,43.8,41.9,29.90,West,266,0.0,0.0,93,0.00,,FEW060,0.00,VWS V14.01,2013-05-07 08:45:00,
2013-05-07 04:50:00,43.7,41.8,29.90,West,266,0.0,1.3,93,0.00,,FEW060,0.00,VWS V14.01,2013-05-07 08:50:00,
2013-05-07 04:55:00,43.7,41.8,29.90,West,266,0.0,0.0,93,0.00,,FEW060,0.00,VWS V14.01,2013-05-07 08:55:00,
2013-05-07 05:00:00,43.7,41.8,29.89,West,266,0.0,0.0,93,0.00,,,0.00,VWS V14.01,2013-05-07 09:00:00,
2013-05-07 05:05:00,43.6,41.7,29.89,West,266,0.0,1.3,93,0.00,,,0.00,VWS V14.01,2013-05-07 09:05:00,
2013-05-07 05:10:00,43.5,41.6,29.90,West,266,0.0,0.0,93,0.00,,,0.00,VWS V14.01,2013-05-07 09:10:00,
2013-05-07 05:15:00,43.5,41.6,29.89,West,266,0.0,1.3,93,0.00,,,0.00,VWS V14.01,2013-05-07 09:15:00,
2013-05-07 05:20:00,43.6,41.7,29.89,West,266,0.0,1.3,93,0.00,,,0.00,VWS V14.01,2013-05-07 09:20:00,
2013-05-07 05:25:00,43.6,41.7,29.89,West,266,0.0,0.0,93,0.00,,,0.00,VWS V14.01,2013-05-07 09:25:00,
2013-05-07 05:30:00,43.6,41.7,29.90,West,266,0.0,0.0,93,0.00,,,0.00,VWS V14.01,2013-05-07 09:30:00,
2013-05-07 05:35:00,43.5,41.6,29.90,West,266,0.0,0.0,93,0.00,,,0.00,VWS V14.01,2013-05-07 09:35:00,
2013-05-07 05:40:00,43.5,41.6,29.90,West,266,0.0,1.3,93,0.00,,,0.00,VWS V14.01,2013-05-07 09:40:00,
2013-05-07 05:45:00,43.4,41.5,29.90,West,266,0.0,3.9,93,0.00,,,0.00,VWS V14.01,2013-05-07 09:45:00,
2013-05-07 05:50:00,43.3,41.4,29.90,West,266,0.0,1.3,93,0.00,,,0.00,VWS V14.01,2013-05-07 09:50:00,
2013-05-07 05:55:00,43.3,41.7,29.90,WNW,296,0.0,1.3,94,0.00,,,0.00,VWS V14.01,2013-05-07 09:55:00,
2013-05-07 06:00:00,43.3,41.4,29.90,WNW,296,0.0,0.0,93,0.00,,CLR,0.00,VWS V14.01,2013-05-07 10:00:00,
2013-05-07 06:05:00,43.2,41.3,29.90,WNW,296,0.0,2.6,93,0.00,,CLR,0.00,VWS V14.01,2013-05-07 10:05:00,
2013-05-07 06:11:00,43.0,41.1,29.90,WNW,296,0.0,0.0,93,0.00,,CLR,0.00,VWS V14.01,2013-05-07 10:11:00,
2013-05-07 06:16:00,42.9,41.0,29.90,WNW,296,0.0,0.0,93,0.00,,CLR,0.00,VWS V14.01,2013-05-07 10:16:00,
2013-05-07 06:21:00,42.8,40.9,29.90,WNW,296,0.0,0.0,93,0.00,,CLR,0.00,VWS V14.01,2013-05-07 10:21:00,
2013-05-07 06:26:00,42.8,41.2,29.90,WNW,296,0.0,0.0,94,0.00,,CLR,0.00,VWS V14.01,2013-05-07 10:26:00,
2013-05-07 06:31:00,42.8,41.2,29.91,WNW,296,0.0,0.0,94,0.00,,CLR,0.00,VWS V14.01,2013-05-07 10:31:00,
2013-05-07 06:36:00,42.7,40.8,29.91,WNW,296,0.0,1.3,93,0.00,,CLR,0.00,VWS V14.01,2013-05-07 10:36:00,
2013-05-07 06:41:00,42.8,41.2,29.91,WNW,296,0.0,0.0,94,0.00,,CLR,0.00,VWS V14.01,2013-05-07 10:41:00,
2013-05-07 06:46:00,42.9,41.3,29.91,WNW,296,0.0,0.0,94,0.00,,CLR,0.00,VWS V14.01,2013-05-07 10:46:00,
2013-05-07 06:51:00,42.9,41.3,29.91,WNW,296,0.0,0.0,94,0.00,,CLR,0.00,VWS V14.01,2013-05-07 10:51:00,
2013-05-07 06:56:00,42.9,41.3,29.91,WNW,296,0.0,0.0,94,0.00,,CLR,0.00,VWS V14.01,2013-05-07 10:56:00,
2013-05-07 07:01:00,42.8,41.2,29.91,WNW,296,0.0,0.0,94,0.00,,BKN100,0.00,VWS V14.01,2013-05-07 11:01:00,
2013-05-07 07:06:00,42.8,41.2,29.92,WNW,296,0.0,0.0,94,0.00,,BKN100,0.00,VWS V14.01,2013-05-07 11:06:00,
2013-05-07 07:11:00,42.9,41.3,29.92,WNW,296,0.0,0.0,94,0.00,,BKN100,0.00,VWS V14.01,2013-05-07 11:11:00,
2013-05-07 07:16:00,43.2,41.6,29.92,WNW,296,0.0,0.0,94,0.00,,BKN100,0.00,VWS V14.01,2013-05-07 11:16:00,
2013-05-07 07:21:00,43.6,42.0,29.92,WNW,296,0.0,0.0,94,0.00,,BKN100,0.00,VWS V14.01,2013-05-07 11:21:00,
2013-05-07 07:26:00,43.8,42.2,29.92,WNW,296,0.0,0.0,94,0.00,,BKN100,0.00,VWS V14.01,2013-05-07 11:26:00,
2013-05-07 07:31:00,44.2,42.6,29.92,WNW,296,0.0,0.0,94,0.00,,BKN100,0.00,VWS V14.01,2013-05-07 11:31:00,
2013-05-07 07:36:00,44.6,43.0,29.92,WNW,296,0.0,0.0,94,0.00,,BKN100,0.00,VWS V14.01,2013-05-07 11:36:00,
2013-05-07 07:41:00,45.3,43.7,29.93,WNW,296,1.3,1.3,94,0.00,,BKN100,0.00,VWS V14.01,2013-05-07 11:41:00,
2013-05-07 07:46:00,46.4,44.8,29.93,WNW,296,0.0,0.0,94,0.00,,BKN100,0.00,VWS V14.01,2013-05-07 11:46:00,
2013-05-07 07:51:00,47.4,45.8,29.93,WNW,296,0.0,0.0,94,0.00,,BKN100,0.00,VWS V14.01,2013-05-07 11:51:00,
2013-05-07 07:56:00,48.4,46.5,29.93,WNW,296,0.0,0.0,93,0.00,,BKN100,0.00,VWS V14.01,2013-05-07 11:56:00,
2013-05-07 08:01:00,49.2,47.3,29.93,WNW,296,0.0,0.0,93,0.00,,OVC100,0.00,VWS V14.01,2013-05-07 12:01:00,
2013-05-07 08:06:00,49.4,47.5,29.93,WNW,296,0.0,0.0,93,0.00,,OVC100,0.00,VWS V14.01,2013-05-07 12:06:00,
2013-05-07 08:11:00,49.8,47.9,29.93,WNW,296,0.0,0.0,93,0.00,,OVC100,0.00,VWS V14.01,2013-05-07 12:11:00,
2013-05-07 08:16:00,50.8,48.8,29.93,WNW,296,0.0,0.0,93,0.00,,OVC100,0.00,VWS V14.01,2013-05-07 12:16:00,
2013-05-07 08:21:00,52.0,49.8,29.94,WNW,296,0.0,0.0,92,0.00,,OVC100,0.00,VWS V14.01,2013-05-07 12:21:00,
2013-05-07 08:26:00,53.5,50.6,29.94,WNW,296,0.0,0.0,90,0.00,,OVC100,0.00,VWS V14.01,2013-05-07 12:26:00,
2013-05-07 08:31:00,54.5,51.6,29.94,WNW,296,0.0,1.3,90,0.00,,OVC100,0.00,VWS V14.01,2013-05-07 12:31:00,
2013-05-07 08:36:00,55.6,52.1,29.94,WNW,296,0.0,1.3,88,0.00,,OVC100,0.00,VWS V14.01,2013-05-07 12:36:00,
2013-05-07 08:41:00,56.4,52.3,29.94,WNW,296,0.0,1.3,86,0.00,,OVC100,0.00,VWS V14.01,2013-05-07 12:41:00,
2013-05-07 08:46:00,57.1,52.6,29.94,ESE,107,0.0,2.6,85,0.00,,OVC100,0.00,VWS V14.01,2013-05-07 12:46:00,
2013-05-07 08:51:00,57.6,51.8,29.94,North,5,0.0,3.9,81,0.00,,OVC100,0.00,VWS V14.01,2013-05-07 12:51:00,
2013-05-07 08:56:00,58.3,53.2,29.94,NE,34,0.0,1.3,83,0.00,,OVC100,0.00,VWS V14.01,2013-05-07 12:56:00,
2013-05-07 09:01:00,58.8,51.6,29.94,NNE,22,2.6,3.9,77,0.00,,FEW100,0.00,VWS V14.01,2013-05-07 13:01:00,
2013-05-07 09:06:00,59.2,52.0,29.95,NNE,17,2.6,3.9,77,0.00,,FEW100,0.00,VWS V14.01,2013-05-07 13:06:00,
2013-05-07 09:11:00,59.4,51.5,29.94,NNE,12,1.3,2.6,75,0.00,,FEW100,0.00,VWS V14.01,2013-05-07 13:11:00,
2013-05-07 09:16:00,59.5,51.9,29.95,ENE,63,1.3,3.9,76,0.00,,FEW100,0.00,VWS V14.01,2013-05-07 13:16:00,
2013-05-07 09:21:00,59.9,52.0,29.94,ENE,63,0.0,2.6,75,0.00,,FEW100,0.00,VWS V14.01,2013-05-07 13:21:00,
2013-05-07 09:26:00,60.4,52.1,29.94,ENE,63,0.0,1.3,74,0.00,,FEW100,0.00,VWS V14.01,2013-05-07 13:26:00,
2013-05-07 09:31:00,61.0,52.3,29.95,ENE,60,5.2,7.8,73,0.00,,FEW100,0.00,VWS V14.01,2013-05-07 13:31:00,
2013-05-07 09:36:00,61.0,51.5,29.94,ENE,57,0.0,3.9,71,0.00,,FEW100,0.00,VWS V14.01,2013-05-07 13:36:00,
2013-05-07 09:41:00,61.5,52.8,29.95,ENE,57,1.3,1.3,73,0.00,,FEW100,0.00,VWS V14.01,2013-05-07 13:41:00,
2013-05-07 09:46:00,62.2,53.1,29.95,ENE,72,3.9,3.9,72,0.00,,FEW100,0.00,VWS V14.01,2013-05-07 13:46:00,
2013-05-07 09:52:00,62.3,52.4,29.95,East,87,3.9,6.5,70,0.00,,FEW100,0.00,VWS V14.01,2013-05-07 13:52:00,
2013-05-07 09:57:00,62.2,51.9,29.95,NE,35,1.3,5.2,69,0.00,,FEW100,0.00,VWS V14.01,2013-05-07 13:57:00,
2013-05-07 10:02:00,62.7,53.5,29.95,NW,325,1.3,3.9,72,0.00,,CLR,0.00,VWS V14.01,2013-05-07 14:02:00,
2013-05-07 10:07:00,62.9,51.4,29.95,NNE,26,0.0,3.9,66,0.00,,CLR,0.00,VWS V14.01,2013-05-07 14:07:00,
2013-05-07 10:12:00,62.9,51.4,29.94,NW,324,0.0,3.9,66,0.00,,CLR,0.00,VWS V14.01,2013-05-07 14:12:00,
2013-05-07 10:17:00,63.1,52.4,29.95,NNE,22,2.6,5.2,68,0.00,,CLR,0.00,VWS V14.01,2013-05-07 14:17:00,
2013-05-07 10:22:00,63.0,51.5,29.94,ENE,73,3.9,6.5,66,0.00,,CLR,0.00,VWS V14.01,2013-05-07 14:22:00,
2013-05-07 10:27:00,63.0,50.7,29.94,NE,39,0.0,6.5,64,0.00,,CLR,0.00,VWS V14.01,2013-05-07 14:27:00,
2013-05-07 10:32:00,63.4,51.9,29.94,ENE,67,2.6,3.9,66,0.00,,CLR,0.00,VWS V14.01,2013-05-07 14:32:00,
2013-05-07 10:37:00,63.2,51.7,29.94,SSW,209,0.0,1.3,66,0.00,,CLR,0.00,VWS V14.01,2013-05-07 14:37:00,
2013-05-07 10:42:00,63.1,50.7,29.94,WNW,298,0.0,3.9,64,0.00,,CLR,0.00,VWS V14.01,2013-05-07 14:42:00,
2013-05-07 10:47:00,63.1,50.7,29.94,SW,230,3.9,3.9,64,0.00,,CLR,0.00,VWS V14.01,2013-05-07 14:47:00,
2013-05-07 10:52:00,63.0,50.7,29.94,North,351,1.3,1.3,64,0.00,,CLR,0.00,VWS V14.01,2013-05-07 14:52:00,
2013-05-07 10:57:00,62.4,50.9,29.94,WNW,298,0.0,5.2,66,0.00,,CLR,0.00,VWS V14.01,2013-05-07 14:57:00,
2013-05-07 11:02:00,62.0,50.5,29.94,WSW,252,3.9,7.8,66,0.00,,FEW037,0.00,VWS V14.01,2013-05-07 15:02:00,
2013-05-07 11:07:00,61.9,50.8,29.95,SW,235,0.0,1.3,67,0.00,,FEW037,0.00,VWS V14.01,2013-05-07 15:07:00,
2013-05-07 11:12:00,62.0,50.1,29.95,SSW,201,0.0,2.6,65,0.00,,FEW037,0.00,VWS V14.01,2013-05-07 15:12:00,
2013-05-07 11:17:00,62.4,50.5,29.94,SSW,198,0.0,3.9,65,0.00,,FEW037,0.00,VWS V14.01,2013-05-07 15:17:00,
2013-05-07 11:22:00,63.0,50.7,29.94,SSW,198,0.0,1.3,64,0.00,,FEW037,0.00,VWS V14.01,2013-05-07 15:22:00,
2013-05-07 11:27:00,63.8,50.5,29.94,SSW,198,2.6,3.9,62,0.00,,FEW037,0.00,VWS V14.01,2013-05-07 15:27:00,
2013-05-07 11:32:00,63.5,50.7,29.94,West,279,0.0,3.9,63,0.00,,FEW037,0.00,VWS V14.01,2013-05-07 15:32:00,
2013-05-07 11:37:00,63.5,51.1,29.94,NNE,19,0.0,3.9,64,0.00,,FEW037,0.00,VWS V14.01,2013-05-07 15:37:00,
2013-05-07 11:42:00,63.6,52.0,29.94,WSW,244,3.9,5.2,66,0.00,,FEW037,0.00,VWS V14.01,2013-05-07 15:42:00,
2013-05-07 11:47:00,64.1,51.7,29.94,ENE,78,3.9,3.9,64,0.00,,FEW037,0.00,VWS V14.01,2013-05-07 15:47:00,
2013-05-07 11:52:00,64.3,48.8,29.94,SE,139,2.6,7.8,57,0.00,,FEW037,0.00,VWS V14.01,2013-05-07 15:52:00,
2013-05-07 11:57:00,64.2,49.1,29.94,South,187,3.9,6.5,58,0.00,,FEW037,0.00,VWS V14.01,2013-05-07 15:57:00,
2013-05-07 12:02:00,64.1,50.4,29.94,SSW,199,1.3,7.8,61,0.00,,FEW110,0.00,VWS V14.01,2013-05-07 16:02:00,
2013-05-07 12:07:00,64.1,50.0,29.94,South,191,5.2,9.1,60,0.00,,FEW110,0.00,VWS V14.01,2013-05-07 16:07:00,
2013-05-07 12:12:00,64.4,49.3,29.94,NW,321,7.8,9.1,58,0.00,,FEW110,0.00,VWS V14.01,2013-05-07 16:12:00,
2013-05-07 12:17:00,64.6,50.9,29.94,South,183,2.6,6.5,61,0.00,,FEW110,0.00,VWS V14.01,2013-05-07 16:17:00,
2013-05-07 12:22:00,64.6,49.5,29.94,SSE,161,0.0,5.2,58,0.00,,FEW110,0.00,VWS V14.01,2013-05-07 16:22:00,
2013-05-07 12:27:00,65.5,49.4,29.94,WSW,240,1.3,7.8,56,0.00,,FEW110,0.00,VWS V14.01,2013-05-07 16:27:00,
2013-05-07 12:32:00,66.1,50.0,29.94,SE,128,5.2,9.1,56,0.00,,FEW110,0.00,VWS V14.01,2013-05-07 16:32:00,
2013-05-07 12:37:00,66.2,50.1,29.94,SSW,207,5.2,10.4,56,0.00,,FEW110,0.00,VWS V14.01,2013-05-07 16:37:00,
2013-05-07 12:42:00,66.3,50.2,29.94,South,169,2.6,6.5,56,0.00,,FEW110,0.00,VWS V14.01,2013-05-07 16:42:00,
2013-05-07 12:47:00,66.3,49.2,29.94,SW,216,2.6,6.5,54,0.00,,FEW110,0.00,VWS V14.01,2013-05-07 16:47:00,
2013-05-07 12:52:00,66.2,49.1,29.93,SSW,202,9.1,11.7,54,0.00,,FEW110,0.00,VWS V14.01,2013-05-07 16:52:00,
2013-05-07 12:57:00,65.6,47.0,29.93,SSE,159,5.2,9.1,51,0.00,,FEW110,0.00,VWS V14.01,2013-05-07 16:57:00,
2013-05-07 13:02:00,65.3,47.8,29.93,SW,228,3.9,9.1,53,0.00,,FEW065,0.00,VWS V14.01,2013-05-07 17:02:00,
2013-05-07 13:07:00,65.6,49.5,29.93,West,265,7.8,9.1,56,0.00,,FEW065,0.00,VWS V14.01,2013-05-07 17:07:00,
2013-05-07 13:12:00,65.7,49.1,29.93,West,281,2.6,3.9,55,0.00,,FEW065,0.00,VWS V14.01,2013-05-07 17:12:00,
2013-05-07 13:17:00,66.6,50.0,29.92,East,90,3.9,6.5,55,0.00,,FEW065,0.00,VWS V14.01,2013-05-07 17:17:00,
2013-05-07 13:22:00,68.0,51.7,29.92,ENE,74,2.6,5.2,56,0.00,,FEW065,0.00,VWS V14.01,2013-05-07 17:22:00,
2013-05-07 13:27:00,68.5,48.1,29.92,SW,225,3.9,7.8,48,0.00,,FEW065,0.00,VWS V14.01,2013-05-07 17:27:00,
2013-05-07 13:33:00,68.3,47.9,29.92,SW,220,5.2,7.8,48,0.00,,FEW065,0.00,VWS V14.01,2013-05-07 17:33:00,
2013-05-07 13:38:00,67.7,47.9,29.92,SSW,205,2.6,6.5,49,0.00,,FEW065,0.00,VWS V14.01,2013-05-07 17:38:00,
2013-05-07 13:43:00,67.9,46.4,29.92,WSW,239,6.5,11.7,46,0.00,,FEW065,0.00,VWS V14.01,2013-05-07 17:43:00,
2013-05-07 13:48:00,67.9,45.2,29.92,WSW,249,5.2,9.1,44,0.00,,FEW065,0.00,VWS V14.01,2013-05-07 17:48:00,
2013-05-07 13:53:00,67.7,49.5,29.92,South,186,2.6,6.5,52,0.00,,FEW065,0.00,VWS V14.01,2013-05-07 17:53:00,
2013-05-07 13:58:00,67.1,49.4,29.92,South,184,5.2,9.1,53,0.00,,FEW065,0.00,VWS V14.01,2013-05-07 17:58:00,
2013-05-07 14:03:00,66.9,50.7,29.91,South,173,2.6,13.0,56,0.00,,BKN095,0.00,VWS V14.01,2013-05-07 18:03:00,
2013-05-07 14:08:00,66.9,51.7,29.91,SSW,210,2.6,9.1,58,0.00,,BKN095,0.00,VWS V14.01,2013-05-07 18:08:00,
2013-05-07 14:13:00,67.5,52.7,29.91,SW,226,3.9,7.8,59,0.00,,BKN095,0.00,VWS V14.01,2013-05-07 18:13:00,
2013-05-07 14:18:00,68.0,52.2,29.91,SSE,168,1.3,9.1,57,0.00,,BKN095,0.00,VWS V14.01,2013-05-07 18:18:00,
2013-05-07 14:23:00,68.1,52.8,29.91,SSW,211,1.3,5.2,58,0.00,,BKN095,0.00,VWS V14.01,2013-05-07 18:23:00,
2013-05-07 14:28:00,67.9,51.6,29.91,SSE,160,5.2,7.8,56,0.00,,BKN095,0.00,VWS V14.01,2013-05-07 18:28:00,
2013-05-07 14:33:00,67.5,51.3,29.91,SSE,164,2.6,9.1,56,0.00,,BKN095,0.00,VWS V14.01,2013-05-07 18:33:00,
2013-05-07 14:38:00,68.0,50.8,29.90,SW,236,1.3,6.5,54,0.00,,BKN095,0.00,VWS V14.01,2013-05-07 18:38:00,
2013-05-07 14:43:00,67.9,50.7,29.90,SSE,159,9.1,9.1,54,0.00,,BKN095,0.00,VWS V14.01,2013-05-07 18:43:00,
2013-05-07 14:48:00,67.9,51.6,29.90,WSW,246,6.5,7.8,56,0.00,,BKN095,0.00,VWS V14.01,2013-05-07 18:48:00,
2013-05-07 14:53:00,68.3,51.5,29.90,West,265,2.6,10.4,55,0.00,,BKN095,0.00,VWS V14.01,2013-05-07 18:53:00,
2013-05-07 14:58:00,68.3,50.0,29.90,SSW,200,6.5,10.4,52,0.00,,BKN095,0.00,VWS V14.01,2013-05-07 18:58:00,
2013-05-07 15:03:00,67.6,50.4,29.90,West,259,2.6,11.7,54,0.00,,FEW050,0.00,VWS V14.01,2013-05-07 19:03:00,
2013-05-07 15:08:00,67.2,50.0,29.90,WSW,248,6.5,11.7,54,0.00,,FEW050,0.00,VWS V14.01,2013-05-07 19:08:00,
2013-05-07 15:13:00,68.0,50.2,29.89,WSW,257,9.1,13.0,53,0.00,,FEW050,0.00,VWS V14.01,2013-05-07 19:13:00,
2013-05-07 15:18:00,68.4,51.1,29.89,South,183,5.2,6.5,54,0.00,,FEW050,0.00,VWS V14.01,2013-05-07 19:18:00,
2013-05-07 15:23:00,69.2,52.8,29.89,ENE,61,7.8,7.8,56,0.00,,FEW050,0.00,VWS V14.01,2013-05-07 19:23:00,
2013-05-07 15:28:00,70.0,52.1,29.89,SSW,210,3.9,11.7,53,0.00,,FEW050,0.00,VWS V14.01,2013-05-07 19:28:00,
2013-05-07 15:33:00,69.5,52.2,29.89,NW,311,3.9,6.5,54,0.00,,FEW050,0.00,VWS V14.01,2013-05-07 19:33:00,
2013-05-07 15:38:00,68.9,53.1,29.89,SW,231,0.0,7.8,57,0.00,,FEW050,0.00,VWS V14.01,2013-05-07 19:38:00,
2013-05-07 15:43:00,68.5,52.7,29.89,WSW,237,5.2,5.2,57,0.00,,FEW050,0.00,VWS V14.01,2013-05-07 19:43:00,
2013-05-07 15:48:00,67.8,50.1,29.89,SSW,213,1.3,6.5,53,0.00,,FEW050,0.00,VWS V14.01,2013-05-07 19:48:00,
2013-05-07 15:53:00,67.7,51.5,29.89,WSW,252,0.0,5.2,56,0.00,,FEW050,0.00,VWS V14.01,2013-05-07 19:53:00,
2013-05-07 15:58:00,67.9,52.1,29.89,SSW,213,5.2,7.8,57,0.00,,FEW050,0.00,VWS V14.01,2013-05-07 19:58:00,
2013-05-07 16:03:00,68.6,51.8,29.89,West,277,5.2,7.8,55,0.00,,SCT055,0.00,VWS V14.01,2013-05-07 20:03:00,
2013-05-07 16:08:00,69.3,52.0,29.89,NNW,338,1.3,3.9,54,0.00,,SCT055,0.00,VWS V14.01,2013-05-07 20:08:00,
2013-05-07 16:13:00,69.7,51.3,29.89,West,272,1.3,9.1,52,0.00,,SCT055,0.00,VWS V14.01,2013-05-07 20:13:00,
2013-05-07 16:18:00,69.9,50.4,29.88,West,279,2.6,9.1,50,0.00,,SCT055,0.00,VWS V14.01,2013-05-07 20:18:00,
2013-05-07 16:23:00,70.1,51.2,29.89,West,275,2.6,6.5,51,0.00,,SCT055,0.00,VWS V14.01,2013-05-07 20:23:00,
2013-05-07 16:28:00,69.8,51.4,29.88,WSW,254,2.6,7.8,52,0.00,,SCT055,0.00,VWS V14.01,2013-05-07 20:28:00,
2013-05-07 16:33:00,68.9,51.1,29.88,WSW,244,3.9,9.1,53,0.00,,SCT055,0.00,VWS V14.01,2013-05-07 20:33:00,
2013-05-07 16:38:00,68.1,50.8,29.89,WSW,241,5.2,11.7,54,0.00,,SCT055,0.00,VWS V14.01,2013-05-07 20:38:00,
2013-05-07 16:43:00,67.7,51.0,29.89,SSE,167,3.9,5.2,55,0.00,,SCT055,0.00,VWS V14.01,2013-05-07 20:43:00,
2013-05-07 16:48:00,67.8,52.5,29.89,WSW,238,6.5,10.4,58,0.00,,SCT055,0.00,VWS V14.01,2013-05-07 20:48:00,
2013-05-07 16:53:00,67.6,52.8,29.89,South,175,5.2,7.8,59,0.00,,SCT055,0.00,VWS V14.01,2013-05-07 20:53:00,
2013-05-07 16:59:00,67.5,52.2,29.89,South,177,3.9,7.8,58,0.00,,SCT055,0.00,VWS V14.01,2013-05-07 20:59:00,
2013-05-07 17:04:00,67.4,52.1,29.89,SW,227,2.6,6.5,58,0.00,,BKN120,0.00,VWS V14.01,2013-05-07 21:04:00,
2013-05-07 17:09:00,67.5,52.7,29.89,West,272,3.9,3.9,59,0.00,,BKN120,0.00,VWS V14.01,2013-05-07 21:09:00,
2013-05-07 17:14:00,67.6,52.8,29.89,SW,232,5.2,5.2,59,0.00,,BKN120,0.00,VWS V14.01,2013-05-07 21:14:00,
2013-05-07 17:19:00,67.7,53.3,29.89,SW,227,1.3,3.9,60,0.00,,BKN120,0.00,VWS V14.01,2013-05-07 21:19:00,
2013-05-07 17:24:00,67.6,52.3,29.89,South,172,2.6,5.2,58,0.00,,BKN120,0.00,VWS V14.01,2013-05-07 21:24:00,
2013-05-07 17:29:00,67.5,52.2,29.89,South,173,2.6,2.6,58,0.00,,BKN120,0.00,VWS V14.01,2013-05-07 21:29:00,
2013-05-07 17:34:00,67.5,52.7,29.89,SSW,200,0.0,6.5,59,0.00,,BKN120,0.00,VWS V14.01,2013-05-07 21:34:00,
2013-05-07 17:39:00,67.3,53.4,29.89,SSW,196,1.3,5.2,61,0.00,,BKN120,0.00,VWS V14.01,2013-05-07 21:39:00,
2013-05-07 17:44:00,67.3,53.8,29.89,SSW,196,0.0,0.0,62,0.00,,BKN120,0.00,VWS V14.01,2013-05-07 21:44:00,
2013-05-07 17:49:00,67.2,55.9,29.90,SSW,196,1.3,2.6,67,0.00,,BKN120,0.00,VWS V14.01,2013-05-07 21:49:00,
2013-05-07 17:54:00,66.0,54.3,29.90,West,259,7.8,15.6,66,0.00,,BKN120,0.00,VWS V14.01,2013-05-07 21:54:00,
2013-05-07 17:59:00,64.4,55.2,29.91,SW,217,0.0,5.2,72,0.00,,-RA,0.00,VWS V14.01,2013-05-07 21:59:00,
2013-05-07 18:04:00,63.2,55.2,29.91,WSW,254,1.3,5.2,75,0.00,,OVC070,0.00,VWS V14.01,2013-05-07 22:04:00,
2013-05-07 18:09:00,62.0,54.4,29.91,South,170,1.3,5.2,76,0.00,,OVC070,0.00,VWS V14.01,2013-05-07 22:09:00,
2013-05-07 18:14:00,61.1,53.8,29.91,SSW,196,0.0,2.6,77,0.00,,OVC070,0.00,VWS V14.01,2013-05-07 22:14:00,
2013-05-07 18:19:00,60.4,54.2,29.92,SSW,196,1.3,3.9,80,0.01,,OVC070,0.01,VWS V14.01,2013-05-07 22:19:00,
2013-05-07 18:24:00,60.0,54.8,29.91,East,82,0.0,2.6,83,0.01,,OVC070,0.01,VWS V14.01,2013-05-07 22:24:00,
2013-05-07 18:29:00,60.2,56.0,29.91,East,82,0.0,0.0,86,0.01,,OVC070,0.01,VWS V14.01,2013-05-07 22:29:00,
2013-05-07 18:34:00,60.3,54.5,29.91,East,82,2.6,3.9,81,0.01,,OVC070,0.01,VWS V14.01,2013-05-07 22:34:00,
2013-05-07 18:39:00,60.1,54.6,29.92,East,82,0.0,0.0,82,0.01,,-RA,0.01,VWS V14.01,2013-05-07 22:39:00,
2013-05-07 18:44:00,59.8,54.6,29.92,East,82,1.3,1.3,83,0.01,,-RA,0.01,VWS V14.01,2013-05-07 22:44:00,
2013-05-07 18:49:00,59.6,54.8,29.92,SSE,163,2.6,5.2,84,0.01,,-RA,0.01,VWS V14.01,2013-05-07 22:49:00,
2013-05-07 18:54:00,59.4,54.9,29.92,South,180,2.6,2.6,85,0.01,,-RA,0.01,VWS V14.01,2013-05-07 22:54:00,
2013-05-07 18:59:00,59.4,55.2,29.92,South,180,0.0,0.0,86,0.01,,-RA,0.01,VWS V14.01,2013-05-07 22:59:00,
2013-05-07 19:04:00,59.3,55.1,29.92,South,179,0.0,1.3,86,0.01,,-RA,0.01,VWS V14.01,2013-05-07 23:04:00,
2013-05-07 19:09:00,59.3,55.4,29.93,South,179,1.3,1.3,87,0.01,,-RA,0.01,VWS V14.01,2013-05-07 23:09:00,
2013-05-07 19:14:00,59.1,55.2,29.93,South,179,1.3,2.6,87,0.01,,-RA,0.01,VWS V14.01,2013-05-07 23:14:00,
2013-05-07 19:19:00,58.9,55.4,29.93,South,179,1.3,2.6,88,0.01,,-RA,0.01,VWS V14.01,2013-05-07 23:19:00,
2013-05-07 19:24:00,58.8,55.3,29.94,South,179,0.0,0.0,88,0.02,,-RA,0.02,VWS V14.01,2013-05-07 23:24:00,
2013-05-07 19:29:00,58.6,55.1,29.94,South,179,1.3,1.3,88,0.04,,-RA,0.04,VWS V14.01,2013-05-07 23:29:00,
2013-05-07 19:34:00,58.3,55.1,29.93,South,179,0.0,3.9,89,0.07,,-RA,0.08,VWS V14.01,2013-05-07 23:34:00,
2013-05-07 19:39:00,58.2,55.3,29.93,South,179,0.0,0.0,90,0.07,,-RA,0.08,VWS V14.01,2013-05-07 23:39:00,
2013-05-07 19:44:00,58.3,55.4,29.94,South,179,0.0,1.3,90,0.08,,-RA,0.09,VWS V14.01,2013-05-07 23:44:00,
2013-05-07 19:49:00,58.2,55.3,29.94,South,179,0.0,1.3,90,0.08,, +RA,0.09,VWS V14.01,2013-05-07 23:49:00,
2013-05-07 19:54:00,57.9,55.0,29.94,South,179,1.3,3.9,90,0.08,,RA,0.09,VWS V14.01,2013-05-07 23:54:00,
2013-05-07 19:59:00,58.2,55.3,29.94,South,179,0.0,1.3,90,0.08,,RA,0.09,VWS V14.01,2013-05-07 23:59:00,
2013-05-07 20:04:00,58.2,55.3,29.95,South,179,0.0,1.3,90,0.08,,RA,0.09,VWS V14.01,2013-05-08 00:04:00,
2013-05-07 20:09:00,58.1,55.2,29.95,South,179,0.0,0.0,90,0.08,,RA,0.09,VWS V14.01,2013-05-08 00:09:00,
2013-05-07 20:14:00,58.0,55.4,29.95,South,179,0.0,1.3,91,0.08,,RA,0.09,VWS V14.01,2013-05-08 00:14:00,
2013-05-07 20:19:00,57.8,55.2,29.95,South,179,0.0,0.0,91,0.08,,RA,0.09,VWS V14.01,2013-05-08 00:19:00,
2013-05-07 20:24:00,57.7,55.1,29.95,South,179,1.3,1.3,91,0.08,,RA,0.09,VWS V14.01,2013-05-08 00:24:00,
2013-05-07 20:29:00,57.4,54.8,29.95,South,179,0.0,1.3,91,0.05,,RA,0.09,VWS V14.01,2013-05-08 00:29:00,
2013-05-07 20:35:00,57.3,54.7,29.96,South,179,0.0,1.3,91,0.05,,RA,0.09,VWS V14.01,2013-05-08 00:35:00,
2013-05-07 20:40:00,57.2,54.6,29.96,South,179,0.0,0.0,91,0.05,,RA,0.09,VWS V14.01,2013-05-08 00:40:00,
2013-05-07 20:45:00,57.1,54.5,29.96,South,179,0.0,1.3,91,0.00,,RA,0.09,VWS V14.01,2013-05-08 00:45:00,
2013-05-07 20:50:00,56.9,54.3,29.96,South,179,0.0,0.0,91,0.00,,RA,0.09,VWS V14.01,2013-05-08 00:50:00,
2013-05-07 20:55:00,56.8,54.2,29.96,South,179,0.0,0.0,91,0.00,,RA,0.09,VWS V14.01,2013-05-08 00:55:00,
2013-05-07 21:00:00,56.7,54.4,29.96,South,179,0.0,1.3,92,0.00,,RA,0.09,VWS V14.01,2013-05-08 01:00:00,
2013-05-07 21:05:00,56.6,54.3,29.96,South,179,0.0,0.0,92,0.00,,OVC055,0.09,VWS V14.01,2013-05-08 01:05:00,
2013-05-07 21:10:00,56.5,54.2,29.97,South,179,0.0,0.0,92,0.00,,OVC055,0.09,VWS V14.01,2013-05-08 01:10:00,
2013-05-07 21:15:00,56.6,54.3,29.96,South,179,0.0,0.0,92,0.00,,OVC055,0.09,VWS V14.01,2013-05-08 01:15:00,
2013-05-07 21:20:00,56.6,54.3,29.97,South,179,0.0,1.3,92,0.00,,OVC055,0.09,VWS V14.01,2013-05-08 01:20:00,
2013-05-07 21:25:00,56.5,54.2,29.97,South,179,0.0,1.3,92,0.00,,OVC055,0.09,VWS V14.01,2013-05-08 01:25:00,
2013-05-07 21:30:00,56.4,54.1,29.97,South,179,0.0,0.0,92,0.00,,OVC055,0.09,VWS V14.01,2013-05-08 01:30:00,
2013-05-07 21:35:00,56.3,54.0,29.97,South,179,0.0,0.0,92,0.00,,OVC055,0.09,VWS V14.01,2013-05-08 01:35:00,
2013-05-07 21:40:00,56.1,53.8,29.97,South,179,0.0,0.0,92,0.00,,OVC055,0.09,VWS V14.01,2013-05-08 01:40:00,
2013-05-07 21:45:00,55.9,53.6,29.97,South,179,0.0,1.3,92,0.00,,OVC055,0.09,VWS V14.01,2013-05-08 01:45:00,
2013-05-07 21:50:00,55.9,53.6,29.97,South,179,0.0,0.0,92,0.00,,OVC055,0.09,VWS V14.01,2013-05-08 01:50:00,
2013-05-07 21:55:00,55.9,53.6,29.97,South,179,0.0,1.3,92,0.00,,OVC055,0.09,VWS V14.01,2013-05-08 01:55:00,
2013-05-07 22:00:00,56.2,54.2,29.97,South,179,0.0,1.3,93,0.00,,OVC080,0.09,VWS V14.01,2013-05-08 02:00:00,
2013-05-07 22:05:00,56.2,53.9,29.97,South,179,0.0,0.0,92,0.00,,OVC080,0.09,VWS V14.01,2013-05-08 02:05:00,
2013-05-07 22:10:00,55.9,53.6,29.97,South,179,0.0,0.0,92,0.00,,OVC080,0.09,VWS V14.01,2013-05-08 02:10:00,
2013-05-07 22:15:00,55.8,53.5,29.97,South,179,0.0,0.0,92,0.00,,OVC080,0.09,VWS V14.01,2013-05-08 02:15:00,
2013-05-07 22:20:00,55.6,53.3,29.97,South,179,0.0,0.0,92,0.00,,OVC080,0.09,VWS V14.01,2013-05-08 02:20:00,
2013-05-07 22:25:00,55.5,53.2,29.97,South,179,0.0,0.0,92,0.00,,OVC080,0.09,VWS V14.01,2013-05-08 02:25:00,
2013-05-07 22:30:00,55.4,53.1,29.97,South,179,0.0,0.0,92,0.00,,OVC080,0.09,VWS V14.01,2013-05-08 02:30:00,
2013-05-07 22:35:00,55.4,53.1,29.97,South,179,0.0,0.0,92,0.00,,OVC080,0.09,VWS V14.01,2013-05-08 02:35:00,
2013-05-07 22:40:00,55.4,53.1,29.97,South,179,0.0,0.0,92,0.00,,OVC080,0.09,VWS V14.01,2013-05-08 02:40:00,
2013-05-07 22:45:00,55.4,53.4,29.97,South,179,0.0,0.0,93,0.00,,OVC080,0.09,VWS V14.01,2013-05-08 02:45:00,
2013-05-07 22:50:00,55.4,53.4,29.97,South,179,0.0,0.0,93,0.00,,OVC080,0.09,VWS V14.01,2013-05-08 02:50:00,
2013-05-07 22:55:00,55.4,53.4,29.97,South,179,0.0,0.0,93,0.00,,OVC080,0.09,VWS V14.01,2013-05-08 02:55:00,
2013-05-07 23:00:00,55.3,53.3,29.97,South,179,0.0,1.3,93,0.00,,OVC075,0.09,VWS V14.01,2013-05-08 03:00:00,
2013-05-07 23:05:00,55.3,53.3,29.97,South,179,0.0,0.0,93,0.00,,OVC075,0.09,VWS V14.01,2013-05-08 03:05:00,
2013-05-07 23:10:00,55.3,53.3,29.97,South,179,0.0,0.0,93,0.00,,OVC075,0.09,VWS V14.01,2013-05-08 03:10:00,
2013-05-07 23:15:00,55.3,53.3,29.97,South,179,0.0,0.0,93,0.00,,OVC075,0.09,VWS V14.01,2013-05-08 03:15:00,
2013-05-07 23:20:00,55.3,53.3,29.97,South,179,0.0,0.0,93,0.00,,OVC075,0.09,VWS V14.01,2013-05-08 03:20:00,
2013-05-07 23:25:00,55.2,53.2,29.97,South,179,0.0,0.0,93,0.00,,OVC075,0.09,VWS V14.01,2013-05-08 03:25:00,
2013-05-07 23:30:00,55.0,53.0,29.97,South,179,0.0,0.0,93,0.00,,OVC075,0.09,VWS V14.01,2013-05-08 03:30:00,
2013-05-07 23:35:00,55.0,53.0,29.97,South,179,0.0,0.0,93,0.00,,OVC075,0.09,VWS V14.01,2013-05-08 03:35:00,
2013-05-07 23:40:00,55.0,53.0,29.97,South,179,0.0,0.0,93,0.00,,OVC075,0.09,VWS V14.01,2013-05-08 03:40:00,
2013-05-07 23:45:00,55.2,53.2,29.97,South,179,0.0,0.0,93,0.00,,OVC075,0.09,VWS V14.01,2013-05-08 03:45:00,
2013-05-07 23:50:00,55.3,53.3,29.97,South,179,0.0,0.0,93,0.00,,OVC075,0.09,VWS V14.01,2013-05-08 03:50:00,
2013-05-07 23:55:00,55.2,53.2,29.97,South,179,0.0,1.3,93,0.00,,OVC075,0.09,VWS V14.01,2013-05-08 03:55:00,